Time;durP1;ratioP1;P1;durP2;ratioP2;P2;SDS_P1;SDS_P2;PMS_P1;PMS_P2;Temp;Humidity;BMP_temperature;BMP_pressure;BME280_temperature;BME280_humidity;BME280_pressure;Samples;Min_cycle;Max_cycle;Signal;HPM_P1;HPM_P2
2022/08/08 00:01:22;;;;;;;9.52;8.52;;;;;;;22.02;60.38;95515.00;5046480;28;20028;-76
2022/08/08 00:04:05;;;;;;;8.55;7.65;;;;;;;21.94;59.44;95514.31;5045068;28;20040;-77
2022/08/08 00:06:51;;;;;;;9.25;8.35;;;;;;;21.81;60.51;95520.13;5044186;28;20021;-75
2022/08/08 00:09:50;;;;;;;10.30;8.75;;;;;;;21.85;59.85;95519.38;5044229;28;20407;-75
2022/08/08 00:12:16;;;;;;;9.82;7.75;;;;;;;21.92;59.72;95526.56;5046089;28;20029;-75
2022/08/08 00:15:03;;;;;;;8.93;8.02;;;;;;;21.96;59.24;95520.34;5027753;28;20090;-77
2022/08/08 00:17:41;;;;;;;9.98;8.10;;;;;;;22.00;59.30;95519.88;5044424;28;20489;-75
2022/08/08 00:20:07;;;;;;;10.48;8.60;;;;;;;21.98;59.71;95520.94;5045978;28;20024;-75
2022/08/08 00:22:46;;;;;;;9.32;8.10;;;;;;;22.00;59.45;95530.78;5045602;28;20061;-75
2022/08/08 00:25:23;;;;;;;10.80;8.70;;;;;;;21.97;59.33;95532.94;5044753;28;20025;-76
2022/08/08 00:27:50;;;;;;;9.52;8.52;;;;;;;21.97;59.34;95534.84;5045839;28;20029;-76
2022/08/08 00:30:15;;;;;;;9.73;8.73;;;;;;;21.90;59.82;95529.53;5045977;28;20036;-76
2022/08/08 00:32:54;;;;;;;11.52;8.07;;;;;;;21.78;60.16;95534.25;5043647;28;20029;-76
2022/08/08 00:35:45;;;;;;;11.43;8.25;;;;;;;21.76;60.15;95537.19;5028882;28;20215;-76
2022/08/08 00:38:33;;;;;;;8.93;8.02;;;;;;;21.69;60.47;95529.16;5046300;28;20033;-77
2022/08/08 00:41:02;;;;;;;11.45;8.38;;;;;;;21.76;59.92;95534.47;5028689;28;20021;-75
2022/08/08 00:43:33;;;;;;;11.05;8.02;;;;;;;21.74;58.99;95532.00;5046171;28;20033;-76
2022/08/08 00:46:33;;;;;;;9.18;7.95;;;;;;;21.75;59.31;95538.25;5045492;28;20075;-75
2022/08/08 00:49:17;;;;;;;12.75;8.43;;;;;;;21.68;59.56;95530.22;5045890;28;20393;-76
2022/08/08 00:52:05;;;;;;;9.80;8.00;;;;;;;21.63;59.56;95526.59;5045760;28;20523;-76
2022/08/08 00:55:09;;;;;;;8.82;7.70;;;;;;;21.68;59.42;95524.75;5043836;28;20428;-76
2022/08/08 00:58:05;;;;;;;12.57;7.70;;;;;;;21.60;59.74;95531.44;5044190;28;20025;-76
2022/08/08 01:00:41;;;;;;;9.30;7.90;;;;;;;21.51;60.03;95527.47;5046006;28;20068;-77
2022/08/08 01:03:22;;;;;;;10.77;8.25;;;;;;;21.50;59.97;95528.53;5028456;28;20129;-77
2022/08/08 01:06:23;;;;;;;9.45;8.27;;;;;;;21.46;60.31;95536.38;5045697;28;20025;-76
2022/08/08 01:09:10;;;;;;;11.40;8.52;;;;;;;21.41;60.37;95538.19;5026409;28;20053;-77
2022/08/08 01:12:06;;;;;;;10.10;7.93;;;;;;;21.48;60.01;95531.53;5045732;28;20045;-77
2022/08/08 01:15:03;;;;;;;9.55;7.93;;;;;;;21.47;60.15;95535.31;5046318;28;20029;-77
2022/08/08 01:17:51;;;;;;;9.15;8.15;;;;;;;21.55;60.18;95534.09;5045750;28;20048;-77
2022/08/08 01:20:16;;;;;;;12.55;7.97;;;;;;;21.49;59.90;95538.63;5045260;28;20036;-77
2022/08/08 01:23:02;;;;;;;10.77;8.68;;;;;;;21.45;60.68;95537.47;5049736;28;20040;-76
2022/08/08 01:25:55;;;;;;;11.18;7.85;;;;;;;21.48;60.32;95538.88;5048115;28;20041;-77
2022/08/08 01:28:20;;;;;;;8.63;7.72;;;;;;;21.32;60.89;95545.94;5049546;28;20109;-77
2022/08/08 01:30:45;;;;;;;9.00;8.10;;;;;;;21.30;60.64;95548.06;5049475;28;20100;-77
2022/08/08 01:33:46;;;;;;;11.38;8.35;;;;;;;21.31;60.43;95545.09;5049526;28;20021;-76
2022/08/08 01:36:30;;;;;;;13.10;8.43;;;;;;;21.30;60.70;95545.34;5048474;28;20087;-76
2022/08/08 01:39:14;;;;;;;10.07;8.55;;;;;;;21.30;60.67;95542.59;5048984;28;20039;-75
2022/08/08 01:41:42;;;;;;;10.23;8.45;;;;;;;21.18;61.02;95550.84;5048941;28;20104;-75
2022/08/08 01:44:16;;;;;;;11.02;9.02;;;;;;;21.15;60.97;95556.78;5048706;28;20040;-75
2022/08/08 01:46:53;;;;;;;12.27;8.50;;;;;;;21.17;61.16;95552.72;5048684;28;20505;-76
2022/08/08 01:49:46;;;;;;;10.23;8.82;;;;;;;21.22;61.21;95554.72;5047668;28;20491;-75
2022/08/08 01:52:12;;;;;;;11.00;8.32;;;;;;;21.12;60.96;95549.91;5048704;28;20561;-76
2022/08/08 01:55:12;;;;;;;10.82;8.70;;;;;;;21.04;61.05;95548.38;5048870;28;20103;-74
2022/08/08 01:57:46;;;;;;;10.52;8.45;;;;;;;21.06;61.51;95551.69;5047460;28;20057;-75
2022/08/08 02:00:22;;;;;;;11.00;8.48;;;;;;;21.14;61.23;95546.94;5047267;28;20040;-75
2022/08/08 02:03:16;;;;;;;12.00;8.85;;;;;;;21.04;61.19;95551.09;5047309;28;20047;-75
2022/08/08 02:05:50;;;;;;;9.13;8.18;;;;;;;20.99;61.49;95559.16;5047431;28;20025;-76
2022/08/08 02:08:37;;;;;;;10.25;8.80;;;;;;;21.08;61.28;95565.09;5047963;28;20064;-75
2022/08/08 02:11:22;;;;;;;14.68;9.00;;;;;;;21.07;61.22;95553.34;5048133;28;20029;-75
2022/08/08 02:13:52;;;;;;;9.60;8.20;;;;;;;21.02;61.54;95558.72;5047196;28;20091;-77
2022/08/08 02:16:37;;;;;;;8.93;7.78;;;;;;;21.00;61.58;95560.84;5047135;28;20074;-77
2022/08/08 02:19:34;;;;;;;12.63;7.90;;;;;;;21.02;60.88;95555.16;5048260;28;20047;-76
2022/08/08 02:22:30;;;;;;;10.52;8.15;;;;;;;20.94;60.91;95556.38;5047882;28;20029;-75
2022/08/08 02:25:15;;;;;;;9.43;7.90;;;;;;;20.77;61.61;95551.59;5048174;28;20055;-77
2022/08/08 02:27:56;;;;;;;10.45;8.02;;;;;;;20.89;61.47;95557.06;5047148;28;20551;-76
2022/08/08 02:30:27;;;;;;;8.65;7.75;;;;;;;20.95;61.26;95552.56;5046414;28;20037;-77
2022/08/08 02:32:59;;;;;;;9.82;8.35;;;;;;;20.95;61.54;95567.03;5048146;28;20056;-77
2022/08/08 02:35:52;;;;;;;9.25;7.93;;;;;;;20.93;61.30;95558.25;5046665;28;20087;-77
2022/08/08 02:38:38;;;;;;;11.35;8.27;;;;;;;21.00;60.75;95563.56;5047785;28;20033;-75
2022/08/08 02:41:16;;;;;;;14.02;8.75;;;;;;;21.04;60.75;95561.22;5046512;28;20503;-76
2022/08/08 02:43:56;;;;;;;15.25;9.05;;;;;;;21.00;61.36;95569.03;5047955;28;20029;-76
2022/08/08 02:46:56;;;;;;;13.40;8.50;;;;;;;20.99;61.33;95573.63;5047657;28;20104;-76
2022/08/08 02:49:39;;;;;;;9.77;8.48;;;;;;;21.02;60.92;95574.25;5047954;28;20053;-76
2022/08/08 02:52:29;;;;;;;10.10;8.77;;;;;;;21.01;61.15;95573.41;5046078;28;20158;-76
2022/08/08 02:55:22;;;;;;;11.55;8.23;;;;;;;20.94;61.30;95576.25;5048305;28;20030;-76
2022/08/08 02:58:09;;;;;;;14.45;8.75;;;;;;;20.94;60.13;95575.44;5047929;28;20033;-77
2022/08/08 03:00:49;;;;;;;12.77;8.75;;;;;;;20.95;58.54;95575.19;5047413;28;20510;-77
2022/08/08 03:03:43;;;;;;;15.02;7.82;;;;;;;20.95;57.64;95577.09;5046310;28;20067;-77
2022/08/08 03:06:21;;;;;;;12.65;8.10;;;;;;;20.81;58.42;95585.47;5047911;28;20029;-77
2022/08/08 03:09:11;;;;;;;9.65;8.45;;;;;;;20.76;59.42;95577.22;5045709;28;20064;-76
2022/08/08 03:11:39;;;;;;;14.05;10.07;;;;;;;20.72;60.05;95573.28;5047553;28;20029;-77
2022/08/08 03:14:23;;;;;;;14.40;9.38;;;;;;;20.70;60.21;95586.34;5047235;28;20107;-77
2022/08/08 03:17:04;;;;;;;12.18;9.73;;;;;;;20.66;59.94;95587.88;5046971;28;20496;-75
2022/08/08 03:20:00;;;;;;;14.07;9.25;;;;;;;20.65;60.72;95588.94;5045501;28;20048;-76
2022/08/08 03:22:25;;;;;;;13.88;9.50;;;;;;;20.63;60.88;95581.81;5046571;28;20589;-76
2022/08/08 03:24:51;;;;;;;14.02;9.73;;;;;;;20.65;60.95;95588.94;5047686;28;20048;-76
2022/08/08 03:27:17;;;;;;;10.70;9.55;;;;;;;20.55;61.03;95584.94;5046523;28;20127;-76
2022/08/08 03:29:45;;;;;;;13.65;9.10;;;;;;;20.58;61.08;95583.59;5046965;28;20045;-76
2022/08/08 03:35:11;;;;;;;11.57;9.75;;;;;;;20.62;61.13;95588.34;5064183;28;20084;-75
2022/08/08 03:37:36;;;;;;;13.43;9.13;;;;;;;20.59;60.86;95594.28;5050438;28;20033;-76
2022/08/08 03:40:03;;;;;;;17.65;9.98;;;;;;;20.50;60.79;95591.09;5045326;28;20400;-77
2022/08/08 03:42:28;;;;;;;10.88;9.77;;;;;;;20.45;61.38;95599.13;5046599;28;20033;-75
2022/08/08 03:44:54;;;;;;;12.02;9.23;;;;;;;20.45;61.86;95601.84;5045952;28;20422;-76
2022/08/08 03:47:20;;;;;;;13.52;9.60;;;;;;;20.45;61.36;95601.84;5046347;28;20102;-75
2022/08/08 03:49:47;;;;;;;10.38;9.30;;;;;;;20.45;61.20;95607.31;5046159;28;20558;-76
2022/08/08 03:52:13;;;;;;;13.18;10.40;;;;;;;20.43;61.41;95603.13;5044802;28;20056;-75
2022/08/08 03:54:38;;;;;;;13.10;9.65;;;;;;;20.41;61.37;95605.28;5046349;28;20059;-77
2022/08/08 03:57:12;;;;;;;14.15;9.82;;;;;;;20.40;61.14;95609.91;5027814;28;20029;-76
2022/08/08 03:59:37;;;;;;;11.95;9.27;;;;;;;20.36;61.13;95608.72;5045320;28;20074;-77
2022/08/08 04:02:03;;;;;;;11.80;8.82;;;;;;;20.41;60.93;95611.53;5046474;28;20025;-76
2022/08/08 04:04:35;;;;;;;11.10;8.65;;;;;;;20.43;60.71;95603.13;5027730;28;20039;-76
2022/08/08 04:07:01;;;;;;;11.93;9.77;;;;;;;20.44;61.17;95604.81;5046050;28;20523;-76
2022/08/08 04:09:26;;;;;;;13.88;8.60;;;;;;;20.42;61.29;95612.38;5046061;28;20045;-76
2022/08/08 04:11:52;;;;;;;16.58;8.68;;;;;;;20.44;60.99;95607.53;5045796;28;20029;-76
2022/08/08 04:14:17;;;;;;;12.15;9.10;;;;;;;20.45;60.56;95617.34;5044425;28;20017;-76
2022/08/08 04:16:43;;;;;;;17.20;8.85;;;;;;;20.48;60.36;95614.16;5045919;28;20028;-76
2022/08/08 04:19:08;;;;;;;12.15;9.05;;;;;;;20.49;61.00;95610.38;5045966;28;20029;-77
2022/08/08 04:21:34;;;;;;;14.32;8.90;;;;;;;20.57;60.47;95618.19;5045931;28;20403;-77
2022/08/08 04:23:59;;;;;;;11.88;8.93;;;;;;;20.60;60.46;95614.19;5046217;28;20082;-77
2022/08/08 04:26:25;;;;;;;10.43;8.90;;;;;;;20.67;60.14;95619.53;5045894;28;20028;-77
2022/08/08 04:28:50;;;;;;;12.10;9.52;;;;;;;20.70;60.29;95619.03;5045641;28;20029;-75
2022/08/08 04:31:15;;;;;;;11.05;9.23;;;;;;;20.50;60.52;95621.06;5045996;28;20360;-76
2022/08/08 04:33:41;;;;;;;10.45;8.75;;;;;;;20.65;60.34;95621.66;5045931;28;20017;-75
2022/08/08 04:36:06;;;;;;;11.35;8.57;;;;;;;20.76;59.82;95626.28;5046063;28;20020;-77
2022/08/08 04:38:32;;;;;;;11.95;9.13;;;;;;;20.86;59.20;95618.31;5045827;28;20029;-77
2022/08/08 04:40:57;;;;;;;9.88;8.88;;;;;;;20.99;59.07;95627.31;5045635;28;20032;-77
2022/08/08 04:43:23;;;;;;;13.77;8.50;;;;;;;21.14;59.01;95631.47;5045677;28;20037;-75
2022/08/08 04:45:49;;;;;;;11.80;8.98;;;;;;;21.15;59.02;95631.22;5045933;28;20017;-77
2022/08/08 04:48:14;;;;;;;13.30;9.13;;;;;;;21.10;59.15;95634.66;5045641;28;20033;-76
2022/08/08 04:50:40;;;;;;;10.63;8.50;;;;;;;21.34;58.84;95631.09;5045695;28;20135;-78
2022/08/08 04:53:05;;;;;;;11.48;7.93;;;;;;;21.43;58.89;95639.69;5045486;28;20025;-76
2022/08/08 04:55:31;;;;;;;11.95;8.57;;;;;;;21.53;58.31;95637.19;5046590;28;20021;-76
2022/08/08 04:57:57;;;;;;;12.60;8.80;;;;;;;21.66;57.54;95638.81;5047653;28;20025;-76
2022/08/08 05:00:24;;;;;;;10.27;8.90;;;;;;;21.72;57.70;95634.28;5048223;28;20036;-75
2022/08/08 05:02:49;;;;;;;9.20;7.80;;;;;;;21.82;57.98;95634.50;5049638;28;20021;-77
2022/08/08 05:05:16;;;;;;;10.80;8.40;;;;;;;21.90;57.30;95638.75;5049603;28;20179;-77
2022/08/08 05:07:41;;;;;;;9.70;8.05;;;;;;;21.93;56.96;95643.72;5049504;28;20491;-77
2022/08/08 05:10:07;;;;;;;13.35;7.85;;;;;;;22.16;56.69;95643.84;5048858;28;20040;-77
2022/08/08 05:12:32;;;;;;;10.40;8.73;;;;;;;22.28;56.66;95650.06;5048033;28;20329;-77
2022/08/08 05:14:58;;;;;;;9.73;7.95;;;;;;;22.35;55.87;95642.56;5048610;28;20032;-77
2022/08/08 05:17:23;;;;;;;9.45;7.90;;;;;;;22.44;55.51;95645.69;5049464;28;20044;-77
2022/08/08 05:19:49;;;;;;;8.88;7.93;;;;;;;22.59;55.24;95650.63;5049012;28;20025;-77
2022/08/08 05:22:14;;;;;;;9.15;8.23;;;;;;;22.56;54.94;95648.34;5049060;28;20036;-77
2022/08/08 05:24:40;;;;;;;8.55;7.55;;;;;;;22.68;55.34;95647.47;5049095;28;20036;-78
2022/08/08 05:27:05;;;;;;;10.35;7.82;;;;;;;22.81;55.21;95649.84;5048842;28;20099;-77
2022/08/08 05:29:31;;;;;;;13.57;7.80;;;;;;;22.87;55.13;95647.19;5049002;28;20052;-77
2022/08/08 05:31:56;;;;;;;9.95;8.95;;;;;;;23.06;54.97;95645.00;5048616;28;20505;-76
2022/08/08 05:34:31;;;;;;;9.80;8.10;;;;;;;22.76;55.41;95641.59;5049235;28;20398;-78
2022/08/08 05:36:56;;;;;;;9.02;7.80;;;;;;;23.02;55.25;95644.69;5047331;28;20020;-78
2022/08/08 05:39:22;;;;;;;11.77;8.43;;;;;;;23.21;54.90;95647.16;5047583;28;20024;-76
2022/08/08 05:41:50;;;;;;;9.93;7.97;;;;;;;23.49;55.01;95641.78;5048854;28;20021;-76
2022/08/08 05:44:19;;;;;;;10.75;8.82;;;;;;;23.58;54.38;95651.19;5048803;28;20032;-77
2022/08/08 05:46:44;;;;;;;10.07;8.55;;;;;;;23.76;54.28;95650.06;5047195;28;20428;-77
2022/08/08 05:49:10;;;;;;;18.52;8.90;;;;;;;23.91;54.22;95648.53;5046780;28;20020;-77
2022/08/08 05:51:35;;;;;;;12.77;8.23;;;;;;;23.78;53.83;95650.59;5048828;28;20025;-76
2022/08/08 05:54:02;;;;;;;8.93;7.72;;;;;;;24.00;53.68;95649.75;5047951;28;20150;-77
2022/08/08 05:56:27;;;;;;;13.73;8.57;;;;;;;24.17;52.95;95646.09;5047576;28;20025;-77
2022/08/08 05:59:20;;;;;;;10.10;7.68;;;;;;;24.24;52.49;95645.91;5030298;28;20032;-77
2022/08/08 06:01:55;;;;;;;9.30;8.23;;;;;;;24.20;52.54;95646.41;5047694;28;20053;-75
2022/08/08 06:04:25;;;;;;;9.13;8.23;;;;;;;24.29;52.30;95652.28;5046953;28;20097;-77
2022/08/08 06:06:52;;;;;;;8.75;7.60;;;;;;;24.51;52.01;95645.88;5047394;28;20025;-77
2022/08/08 06:09:18;;;;;;;8.88;7.68;;;;;;;24.68;51.84;95645.72;5047362;28;20052;-77
2022/08/08 06:11:43;;;;;;;9.15;7.70;;;;;;;24.83;52.13;95654.34;5030105;28;20040;-77
2022/08/08 06:14:08;;;;;;;9.95;8.18;;;;;;;24.78;52.14;95647.72;5030247;28;20025;-77
2022/08/08 06:16:37;;;;;;;9.75;8.45;;;;;;;24.92;51.90;95648.13;5030694;28;20013;-77
2022/08/08 06:19:03;;;;;;;8.75;7.47;;;;;;;25.09;51.81;95649.03;5048124;28;20021;-77
2022/08/08 06:21:28;;;;;;;9.20;7.85;;;;;;;25.18;51.84;95647.47;5047985;28;20122;-77
2022/08/08 06:23:54;;;;;;;8.93;8.00;;;;;;;25.26;52.17;95660.66;5047838;28;20484;-76
2022/08/08 06:26:19;;;;;;;10.63;8.10;;;;;;;25.30;51.65;95656.31;5047879;28;20064;-77
2022/08/08 06:28:50;;;;;;;10.13;7.70;;;;;;;24.91;52.06;95653.88;5046137;28;20463;-77
2022/08/08 06:31:18;;;;;;;9.68;8.05;;;;;;;24.92;51.90;95650.06;5046551;28;20475;-78
2022/08/08 06:33:53;;;;;;;10.73;8.02;;;;;;;24.89;51.96;95662.34;5046501;28;20037;-77
2022/08/08 06:36:38;;;;;;;12.20;7.75;;;;;;;24.83;52.34;95657.09;5046194;28;20108;-77
2022/08/08 06:39:04;;;;;;;11.73;7.82;;;;;;;25.10;51.70;95664.44;5046549;28;20052;-78
2022/08/08 06:41:31;;;;;;;8.73;7.28;;;;;;;25.21;51.64;95663.41;5047251;28;20025;-77
2022/08/08 06:43:57;;;;;;;8.82;6.95;;;;;;;25.34;50.80;95661.28;5047955;28;20033;-78
2022/08/08 06:46:22;;;;;;;8.48;6.82;;;;;;;25.27;50.38;95656.84;5047597;28;20039;-78
2022/08/08 06:48:48;;;;;;;8.20;7.00;;;;;;;25.33;50.12;95665.94;5047445;28;20032;-78
2022/08/08 06:51:14;;;;;;;8.13;7.32;;;;;;;25.53;50.14;95654.25;5048019;28;20079;-78
2022/08/08 06:53:40;;;;;;;10.65;6.95;;;;;;;25.66;49.29;95660.34;5046054;28;20116;-77
2022/08/08 06:56:07;;;;;;;13.48;7.00;;;;;;;25.97;49.24;95662.38;5047753;28;20171;-76
2022/08/08 06:58:32;;;;;;;11.52;8.10;;;;;;;26.16;49.74;95659.94;5046990;28;20063;-76
2022/08/08 07:00:58;;;;;;;7.40;6.53;;;;;;;26.40;47.98;95662.22;5047665;28;20392;-77
2022/08/08 07:03:59;;;;;;;7.68;6.15;;;;;;;26.40;47.62;95662.22;5046781;28;20032;-77
2022/08/08 07:06:24;;;;;;;72.07;15.48;;;;;;;26.06;48.16;95663.50;5047223;28;20029;-77
2022/08/08 07:08:52;;;;;;;13.25;6.90;;;;;;;25.89;48.36;95664.53;5029538;28;20072;-77
2022/08/08 07:11:19;;;;;;;11.90;7.20;;;;;;;25.99;47.34;95661.00;5029724;28;20059;-77
2022/08/08 07:13:45;;;;;;;11.05;6.15;;;;;;;25.79;47.40;95665.31;5047550;28;20029;-77
2022/08/08 07:16:17;;;;;;;6.68;5.97;;;;;;;25.78;47.35;95660.94;5045426;28;20052;-76
2022/08/08 07:18:56;;;;;;;12.07;6.18;;;;;;;25.85;48.22;95654.38;5045450;28;20037;-77
2022/08/08 07:21:22;;;;;;;8.75;6.53;;;;;;;26.29;48.15;95664.09;5047097;28;20059;-78
2022/08/08 07:23:58;;;;;;;8.00;6.20;;;;;;;26.70;47.52;95666.06;5045375;28;20056;-77
2022/08/08 07:26:25;;;;;;;8.52;6.20;;;;;;;26.73;47.48;95660.03;5047174;28;20029;-77
2022/08/08 07:28:50;;;;;;;7.70;5.82;;;;;;;26.82;47.21;95657.56;5045545;28;20439;-78
2022/08/08 07:31:15;;;;;;;7.13;5.93;;;;;;;26.91;46.28;95658.66;5045570;28;20036;-78
2022/08/08 07:33:41;;;;;;;8.23;6.30;;;;;;;26.60;46.36;95660.59;5045316;28;20021;-77
2022/08/08 07:36:07;;;;;;;12.02;6.43;;;;;;;26.39;46.94;95655.06;5045736;28;20031;-77
2022/08/08 07:38:32;;;;;;;7.75;5.78;;;;;;;26.65;45.88;95653.16;5045139;28;20480;-78
2022/08/08 07:40:58;;;;;;;6.95;5.72;;;;;;;27.12;44.48;95652.31;5045302;28;20040;-77
2022/08/08 07:43:23;;;;;;;7.47;5.28;;;;;;;27.27;43.32;95655.03;5046595;28;20090;-76
2022/08/08 07:45:49;;;;;;;5.97;4.85;;;;;;;27.31;43.99;95657.22;5046412;28;20029;-78
2022/08/08 07:48:14;;;;;;;13.15;5.82;;;;;;;27.39;43.65;95651.16;5046540;28;20028;-79
2022/08/08 07:50:40;;;;;;;5.85;4.90;;;;;;;27.57;43.30;95651.66;5046503;28;20408;-77
2022/08/08 07:53:29;;;;;;;7.22;5.28;;;;;;;27.57;43.55;95646.13;5045196;28;20064;-78
2022/08/08 07:55:55;;;;;;;6.85;5.03;;;;;;;27.42;42.56;95647.00;5045998;28;20507;-78
2022/08/08 07:58:28;;;;;;;7.93;5.18;;;;;;;27.34;43.26;95638.19;5028644;28;20075;-78
2022/08/08 08:01:09;;;;;;;7.18;4.88;;;;;;;27.70;43.30;95644.72;5044962;28;20041;-79
2022/08/08 08:04:02;;;;;;;10.87;5.20;;;;;;;27.91;41.24;95639.94;5046291;28;20037;-76
2022/08/08 08:06:29;;;;;;;12.10;5.30;;;;;;;27.89;41.06;95636.66;5044002;28;20044;-77
2022/08/08 08:09:27;;;;;;;10.90;5.07;;;;;;;28.05;40.76;95639.31;5027860;28;20511;-76
2022/08/08 08:11:52;;;;;;;7.95;4.97;;;;;;;28.15;40.42;95636.47;5045297;28;20456;-77
2022/08/08 08:14:32;;;;;;;7.78;5.28;;;;;;;28.15;39.78;95633.72;5044873;28;20104;-77
2022/08/08 08:16:58;;;;;;;5.85;4.65;;;;;;;28.14;39.49;95634.84;5044489;28;20035;-77
2022/08/08 08:19:29;;;;;;;6.38;4.35;;;;;;;28.08;38.91;95636.00;5045071;28;20028;-77
2022/08/08 08:21:54;;;;;;;9.13;4.88;;;;;;;28.05;39.53;95622.78;5044334;28;20041;-77
2022/08/08 08:24:20;;;;;;;8.63;4.65;;;;;;;27.94;38.88;95631.09;5046447;28;20017;-78
2022/08/08 08:26:46;;;;;;;5.38;4.68;;;;;;;27.67;39.87;95626.81;5045795;28;20055;-77
2022/08/08 08:29:11;;;;;;;9.27;5.15;;;;;;;27.69;40.86;95619.13;5045729;28;20025;-77
2022/08/08 08:31:37;;;;;;;9.90;4.80;;;;;;;27.84;39.76;95623.72;5045576;28;20022;-77
2022/08/08 08:34:02;;;;;;;7.88;4.40;;;;;;;27.99;39.88;95620.06;5045518;28;20079;-77
2022/08/08 08:36:28;;;;;;;11.23;5.13;;;;;;;28.11;39.98;95616.13;5045877;28;20380;-78
2022/08/08 08:38:53;;;;;;;14.30;5.70;;;;;;;28.23;40.14;95613.81;5045506;28;20406;-77
2022/08/08 08:41:19;;;;;;;11.45;5.57;;;;;;;28.31;40.22;95606.88;5046159;28;20021;-78
2022/08/08 08:43:45;;;;;;;7.32;4.93;;;;;;;28.29;40.31;95608.28;5045844;28;20094;-78
2022/08/08 08:46:11;;;;;;;7.60;5.10;;;;;;;28.47;39.58;95609.56;5045775;28;20454;-78
2022/08/08 08:48:37;;;;;;;7.18;4.60;;;;;;;28.60;38.61;95608.88;5046495;28;20033;-77
2022/08/08 08:51:03;;;;;;;8.18;4.20;;;;;;;28.60;37.19;95608.09;5044099;28;20075;-78
2022/08/08 08:53:33;;;;;;;6.53;4.35;;;;;;;28.62;37.74;95600.31;5046178;28;20103;-77
2022/08/08 08:55:58;;;;;;;5.90;4.40;;;;;;;28.69;37.87;95602.75;5044096;28;20491;-77
2022/08/08 08:58:31;;;;;;;8.10;4.30;;;;;;;28.80;37.62;95603.47;5045953;28;20028;-77
2022/08/08 09:00:57;;;;;;;26.00;5.65;;;;;;;28.85;37.41;95608.94;5044103;28;20116;-79
2022/08/08 09:03:23;;;;;;;10.20;3.63;;;;;;;28.88;35.63;95605.59;5044216;28;20419;-77
2022/08/08 09:05:48;;;;;;;6.00;3.80;;;;;;;28.90;36.27;95599.78;5044305;28;20017;-78
2022/08/08 09:08:13;;;;;;;4.70;3.53;;;;;;;28.95;34.93;95597.81;5043720;28;20033;-79
2022/08/08 09:10:39;;;;;;;5.68;3.67;;;;;;;28.97;35.84;95592.03;5045668;28;20520;-78
2022/08/08 09:13:05;;;;;;;4.75;3.92;;;;;;;28.91;36.20;95593.16;5045414;28;20098;-78
2022/08/08 09:15:31;;;;;;;8.00;4.70;;;;;;;28.82;36.70;95580.00;5045502;28;20411;-76
2022/08/08 09:17:57;;;;;;;7.20;4.10;;;;;;;28.92;36.11;95581.00;5044978;28;20029;-77
2022/08/08 09:20:24;;;;;;;4.93;3.80;;;;;;;29.10;34.90;95585.00;5045488;28;20032;-78
2022/08/08 09:22:49;;;;;;;6.85;3.10;;;;;;;29.22;32.43;95577.13;5044196;28;20040;-79
2022/08/08 09:25:14;;;;;;;4.18;2.50;;;;;;;29.01;31.54;95576.53;5043964;28;20025;-79
2022/08/08 09:27:40;;;;;;;8.05;3.05;;;;;;;28.82;32.25;95573.66;5027797;28;20028;-77
2022/08/08 09:30:10;;;;;;;7.53;3.03;;;;;;;28.71;32.19;95578.47;5045157;28;20032;-77
2022/08/08 09:32:41;;;;;;;14.32;3.80;;;;;;;28.60;31.58;95566.69;5045384;28;20091;-78
2022/08/08 09:35:14;;;;;;;9.00;3.17;;;;;;;28.75;32.62;95566.53;5044687;28;20036;-78
2022/08/08 09:37:45;;;;;;;9.32;3.50;;;;;;;28.93;33.06;95561.41;5045446;28;20040;-78
2022/08/08 09:40:13;;;;;;;12.63;3.40;;;;;;;29.07;32.86;95563.47;5045136;28;20032;-76
2022/08/08 09:42:41;;;;;;;6.40;3.13;;;;;;;29.15;31.99;95553.75;5045990;28;20025;-76
2022/08/08 09:45:09;;;;;;;4.53;2.50;;;;;;;29.04;31.91;95547.50;5048480;28;20033;-77
2022/08/08 09:47:36;;;;;;;11.15;3.17;;;;;;;28.85;32.10;95543.53;5048545;28;20486;-77
2022/08/08 09:50:16;;;;;;;6.10;2.30;;;;;;;28.74;30.42;95545.56;5048976;28;20095;-77
2022/08/08 09:52:47;;;;;;;7.38;2.47;;;;;;;28.65;30.72;95541.00;5048571;28;20025;-76
2022/08/08 09:55:12;;;;;;;7.50;2.92;;;;;;;28.71;30.90;95551.66;5047405;28;20021;-77
2022/08/08 09:57:39;;;;;;;18.20;3.03;;;;;;;28.61;30.16;95546.28;5048525;28;20072;-77
2022/08/08 10:00:08;;;;;;;19.92;2.80;;;;;;;28.66;30.18;95532.44;5048377;28;20094;-77
2022/08/08 10:02:37;;;;;;;13.80;2.30;;;;;;;28.62;29.59;95539.63;5047223;28;20074;-77
2022/08/08 10:05:17;;;;;;;6.35;2.00;;;;;;;28.79;30.19;95522.66;5048516;28;20025;-78
2022/08/08 10:07:53;;;;;;;9.13;2.30;;;;;;;28.86;28.88;95527.78;5048678;28;20060;-77
2022/08/08 10:10:29;;;;;;;9.95;2.17;;;;;;;28.73;28.46;95521.84;5047551;28;20056;-77
2022/08/08 10:12:55;;;;;;;24.42;2.95;;;;;;;28.77;28.81;95522.09;5048035;28;20021;-77
2022/08/08 10:15:25;;;;;;;24.30;2.90;;;;;;;28.85;29.06;95527.00;5046898;28;20502;-77
2022/08/08 10:17:51;;;;;;;7.47;1.70;;;;;;;28.87;27.09;95510.13;5046910;28;20033;-77
2022/08/08 10:20:17;;;;;;;4.75;1.65;;;;;;;28.92;28.22;95518.38;5048098;28;20022;-78
2022/08/08 10:23:04;;;;;;;10.38;1.90;;;;;;;29.01;28.68;95510.28;5047900;28;20017;-78
2022/08/08 10:25:30;;;;;;;11.68;2.50;;;;;;;29.02;27.79;95511.09;5048006;28;20036;-77
2022/08/08 10:27:55;;;;;;;9.30;2.15;;;;;;;28.93;27.88;95508.97;5030046;28;20029;-77
2022/08/08 10:30:22;;;;;;;7.60;1.80;;;;;;;29.10;28.53;95502.19;5047568;28;20052;-77
2022/08/08 10:32:55;;;;;;;6.53;2.75;;;;;;;28.97;28.83;95504.50;5048089;28;20029;-77
2022/08/08 10:35:23;;;;;;;4.88;1.80;;;;;;;28.85;28.40;95504.91;5047732;28;20059;-79
2022/08/08 10:37:54;;;;;;;6.57;2.28;;;;;;;28.82;28.16;95501.91;5047749;28;20037;-79
2022/08/08 10:40:19;;;;;;;7.85;2.35;;;;;;;28.72;28.85;95492.63;5045876;28;20051;-78
2022/08/08 10:42:47;;;;;;;4.32;1.80;;;;;;;28.79;28.32;95502.50;5047507;28;20389;-78
2022/08/08 10:45:12;;;;;;;7.97;2.38;;;;;;;28.76;28.97;95492.88;5047443;28;20032;-78
2022/08/08 10:47:38;;;;;;;5.72;2.00;;;;;;;28.71;29.06;95502.00;5047423;28;20029;-77
2022/08/08 10:50:05;;;;;;;7.72;2.42;;;;;;;28.94;29.16;95494.03;5047482;28;20087;-78
2022/08/08 10:52:34;;;;;;;4.93;2.10;;;;;;;29.02;29.71;95497.31;5047474;28;20399;-77
2022/08/08 10:55:16;;;;;;;10.90;2.28;;;;;;;28.94;29.75;95498.75;5046935;28;20021;-77
2022/08/08 10:57:43;;;;;;;16.13;3.13;;;;;;;28.82;29.43;95490.88;5028864;28;20021;-78
2022/08/08 11:00:11;;;;;;;14.35;2.65;;;;;;;28.80;29.79;95499.44;5047284;28;20027;-79
2022/08/08 11:02:36;;;;;;;19.20;2.58;;;;;;;28.69;29.23;95493.22;5046738;28;20406;-79
2022/08/08 11:05:05;;;;;;;5.97;2.60;;;;;;;28.58;29.57;95497.19;5046942;28;20025;-77
2022/08/08 11:07:41;;;;;;;8.55;2.35;;;;;;;28.52;30.32;95484.56;5046811;28;20051;-77
2022/08/08 11:10:11;;;;;;;6.10;2.20;;;;;;;28.51;30.09;95480.97;5047018;28;20420;-76
2022/08/08 11:12:49;;;;;;;4.93;2.15;;;;;;;28.70;30.64;95500.38;5046896;28;20048;-77
2022/08/08 11:15:17;;;;;;;8.15;2.60;;;;;;;28.86;30.44;95486.41;5046788;28;20086;-78
2022/08/08 11:17:43;;;;;;;7.70;2.55;;;;;;;29.03;30.56;95487.91;5046385;28;20036;-77
2022/08/08 11:20:13;;;;;;;10.40;2.33;;;;;;;29.06;29.47;95484.53;5046769;28;20052;-78
2022/08/08 11:22:39;;;;;;;14.73;2.50;;;;;;;29.17;29.47;95480.53;5046413;28;20047;-77
2022/08/08 11:25:06;;;;;;;15.55;2.55;;;;;;;29.31;29.51;95479.81;5047012;28;20471;-78
2022/08/08 11:27:34;;;;;;;10.10;2.92;;;;;;;29.41;28.75;95473.31;5046491;28;20557;-78
2022/08/08 11:30:01;;;;;;;12.05;2.15;;;;;;;29.54;28.52;95480.88;5046984;28;20123;-78
2022/08/08 11:32:29;;;;;;;11.68;2.58;;;;;;;29.68;28.47;95488.44;5046271;28;20028;-78
2022/08/08 11:35:19;;;;;;;8.90;2.92;;;;;;;29.77;29.06;95480.28;5046277;28;20025;-77
2022/08/08 11:37:44;;;;;;;7.78;2.42;;;;;;;29.84;28.93;95458.63;5045023;28;20047;-77
2022/08/08 11:40:11;;;;;;;5.35;2.67;;;;;;;29.88;29.25;95470.72;5046549;28;20017;-77
2022/08/08 11:42:37;;;;;;;4.70;2.28;;;;;;;30.01;29.13;95474.66;5046550;28;20063;-76
2022/08/08 11:45:03;;;;;;;6.88;2.50;;;;;;;29.92;28.83;95473.72;5046333;28;20455;-78
2022/08/08 11:47:29;;;;;;;5.63;2.50;;;;;;;30.09;29.19;95470.38;5046291;28;20029;-78
2022/08/08 11:49:57;;;;;;;4.43;2.70;;;;;;;30.06;29.25;95476.53;5045745;28;20040;-77
2022/08/08 11:52:23;;;;;;;5.90;2.72;;;;;;;30.22;29.94;95468.81;5046055;28;20385;-77
2022/08/08 11:54:48;;;;;;;8.43;2.38;;;;;;;30.22;27.54;95457.75;5044841;28;20385;-78